This is the latest recevied weather packets stored in our database for station/object NUUKSIO. If no packets are shown the sender has not sent any weather packets the latest 10 day(s).
| Time | Temp. | Humidity | Pressure | Rain* | Wind** | Luminosity | Snow |
|---|---|---|---|---|---|---|---|
| 1777564014 | 15° C | 51% | 1019.5 hPa | 0 mm | - | - | - |
| 1777562814 | 15.56° C | 51% | 1019.6 hPa | 0 mm | - | - | - |
| 1777561614 | 15.56° C | 50% | 1019.6 hPa | 0 mm | - | - | - |
| 1777560414 | 15.56° C | 50% | 1019.6 hPa | 0 mm | - | - | - |
| 1777559214 | 15.56° C | 50% | 1019.7 hPa | 0 mm | - | - | - |
| 1777558013 | 15.56° C | 50% | 1019.8 hPa | 0 mm | - | - | - |
| 1777556813 | 15.56° C | 50% | 1019.9 hPa | 0 mm | - | - | - |
| 1777555614 | 15° C | 51% | 1020 hPa | 0 mm | - | - | - |
| 1777554413 | 15.56° C | 49% | 1020 hPa | 0 mm | - | - | - |
| 1777553213 | 15.56° C | 50% | 1020.1 hPa | 0 mm | - | - | - |
| 1777552013 | 15.56° C | 52% | 1020.2 hPa | 0 mm | - | - | - |
| 1777550813 | 14.44° C | 52% | 1020.4 hPa | 0 mm | - | - | - |
| 1777549613 | 15.56° C | 51% | 1020.3 hPa | 0 mm | - | - | - |
| 1777548413 | 13.89° C | 56% | 1020.5 hPa | 0 mm | - | - | - |
| 1777547213 | 13.33° C | 59% | 1020.6 hPa | 0 mm | - | - | - |
| 1777546013 | 13.33° C | 57% | 1020.7 hPa | 0 mm | - | - | - |
| 1777544813 | 12.78° C | 57% | 1020.9 hPa | 0 mm | - | - | - |
| 1777543613 | 12.78° C | 60% | 1020.9 hPa | 0 mm | - | - | - |
| 1777542413 | 11.67° C | 63% | 1021.2 hPa | 0 mm | - | - | - |
| 1777541213 | 12.22° C | 63% | 1021.2 hPa | 0 mm | - | - | - |
| 1777540013 | 11.67° C | 63% | 1021.1 hPa | 0 mm | - | - | - |
| 1777538813 | 10° C | 70% | 1021.2 hPa | 0 mm | - | - | - |
| 1777537613 | 9.44° C | 72% | 1021.5 hPa | 0 mm | - | - | - |
| 1777536413 | 8.33° C | 75% | 1021.6 hPa | 0 mm | - | - | - |
| 1777535213 | 7.78° C | 80% | 1021.6 hPa | 0 mm | - | - | - |
* Rain latest hour (hover to see other rain measurements)
** Current wind speed in m/s (hover to see current wind gust speed)